Time;durP1;ratioP1;P1;durP2;ratioP2;P2;SDS_P1;SDS_P2;PMS_P1;PMS_P2;Temp;Humidity;BMP_temperature;BMP_pressure;BME280_temperature;BME280_humidity;BME280_pressure;Samples;Min_cycle;Max_cycle;Signal;HPM_P1;HPM_P2
2021/01/10 00:00:15;;;;;;;11.80;6.60;;;;;;;-0.31;100.00;101622.06;5064570;28;20041;-72
2021/01/10 00:02:42;;;;;;;11.23;6.30;;;;;;;-0.29;100.00;101622.09;5032347;28;20045;-72
2021/01/10 00:05:11;;;;;;;13.93;6.63;;;;;;;-0.30;100.00;101623.81;5059251;28;20040;-72
2021/01/10 00:07:37;;;;;;;10.33;5.73;;;;;;;-0.29;100.00;101625.59;5066570;28;20043;-72
2021/01/10 00:10:11;;;;;;;12.77;6.07;;;;;;;-0.26;100.00;101621.34;5063409;28;20036;-72
2021/01/10 00:12:38;;;;;;;12.82;6.45;;;;;;;-0.28;100.00;101627.34;5048565;28;20425;-72
2021/01/10 00:15:09;;;;;;;9.77;6.43;;;;;;;-0.26;100.00;101629.13;5060353;28;20044;-73
2021/01/10 00:17:40;;;;;;;13.90;6.03;;;;;;;-0.26;100.00;101627.41;5044304;28;20028;-70
2021/01/10 00:20:08;;;;;;;13.97;6.77;;;;;;;-0.25;100.00;101626.63;5043997;28;20029;-70
2021/01/10 00:22:34;;;;;;;12.67;6.73;;;;;;;-0.25;100.00;101629.22;5043732;28;20660;-70
2021/01/10 00:25:03;;;;;;;12.53;6.17;;;;;;;-0.25;100.00;101629.22;5039376;28;20056;-70
2021/01/10 00:27:29;;;;;;;18.10;7.43;;;;;;;-0.25;100.00;101631.81;5046785;28;20036;-70
2021/01/10 00:29:55;;;;;;;15.17;6.23;;;;;;;-0.24;100.00;101628.38;5046329;28;20448;-70
2021/01/10 00:32:21;;;;;;;14.70;7.47;;;;;;;-0.24;100.00;101630.09;5044922;28;20047;-72
2021/01/10 00:34:48;;;;;;;16.10;7.30;;;;;;;-0.24;100.00;101630.09;5059476;28;20422;-72
2021/01/10 00:37:20;;;;;;;16.90;8.73;;;;;;;-0.23;100.00;101632.75;5064220;28;20650;-72
2021/01/10 00:39:48;;;;;;;14.30;7.70;;;;;;;-0.22;100.00;101628.44;5053589;28;20041;-72
2021/01/10 00:42:16;;;;;;;14.77;7.37;;;;;;;-0.21;100.00;101633.69;5040240;28;20466;-72
2021/01/10 00:44:43;;;;;;;17.17;9.10;;;;;;;-0.22;100.00;101624.13;5040410;28;20371;-72
2021/01/10 00:47:09;;;;;;;20.17;8.27;;;;;;;-0.23;100.00;101634.47;5043705;28;20036;-72
2021/01/10 00:49:38;;;;;;;14.73;7.47;;;;;;;-0.25;100.00;101644.78;5041966;28;20402;-72
2021/01/10 00:52:05;;;;;;;15.13;7.20;;;;;;;-0.24;100.00;101643.06;5042346;28;20043;-72
2021/01/10 00:54:32;;;;;;;15.57;7.37;;;;;;;-0.24;100.00;101643.06;5054656;28;20048;-72
2021/01/10 00:56:59;;;;;;;14.90;7.83;;;;;;;-0.23;100.00;101639.66;5042988;28;20045;-72
2021/01/10 00:59:25;;;;;;;14.93;7.57;;;;;;;-0.22;100.00;101641.41;5047479;28;20090;-72
2021/01/10 01:01:52;;;;;;;13.80;7.33;;;;;;;-0.22;100.00;101644.00;5066056;28;20048;-72
2021/01/10 01:04:19;;;;;;;16.80;7.67;;;;;;;-0.21;100.00;101651.84;5050197;28;20123;-72
2021/01/10 01:06:45;;;;;;;15.70;8.43;;;;;;;-0.19;100.00;101644.13;5043061;28;20052;-72
2021/01/10 01:09:11;;;;;;;16.33;8.10;;;;;;;-0.19;100.00;101650.19;5033475;28;20029;-72
2021/01/10 01:11:38;;;;;;;16.23;8.70;;;;;;;-0.17;100.00;101647.66;5066155;28;20040;-72
2021/01/10 01:14:05;;;;;;;17.03;8.20;;;;;;;-0.16;100.00;101649.44;5052718;28;20102;-72
2021/01/10 01:16:32;;;;;;;16.23;8.63;;;;;;;-0.16;100.00;101657.25;5047455;28;20048;-72
2021/01/10 01:18:59;;;;;;;17.53;7.97;;;;;;;-0.15;100.00;101659.00;5049170;28;20052;-72
2021/01/10 01:21:25;;;;;;;15.77;7.53;;;;;;;-0.16;100.00;101660.72;5046325;28;20464;-72
2021/01/10 01:23:51;;;;;;;19.10;8.77;;;;;;;-0.15;100.00;101664.22;5064488;28;20098;-72
2021/01/10 01:26:19;;;;;;;14.70;7.70;;;;;;;-0.14;100.00;101664.25;5062773;28;20040;-72
2021/01/10 01:28:46;;;;;;;14.23;6.50;;;;;;;-0.14;100.00;101672.06;5064659;28;20045;-72
2021/01/10 01:31:17;;;;;;;13.70;6.70;;;;;;;-0.14;100.00;101666.84;5029794;28;20095;-72
2021/01/10 01:33:45;;;;;;;11.50;6.87;;;;;;;-0.14;100.00;101674.66;5028531;28;20131;-72
2021/01/10 01:36:14;;;;;;;12.90;5.87;;;;;;;-0.14;100.00;101679.84;5045483;28;20040;-72
2021/01/10 01:38:41;;;;;;;11.53;6.00;;;;;;;-0.15;100.00;101678.06;5030716;28;20098;-72
2021/01/10 01:41:07;;;;;;;14.07;7.00;;;;;;;-0.15;100.00;101679.78;5043699;28;20111;-72
2021/01/10 01:43:34;;;;;;;14.60;6.67;;;;;;;-0.15;100.00;101679.78;5047113;28;20044;-72
2021/01/10 01:46:03;;;;;;;15.83;6.77;;;;;;;-0.17;100.00;101679.72;5064141;28;20043;-72
2021/01/10 01:48:29;;;;;;;13.40;6.07;;;;;;;-0.16;100.00;101685.81;5047307;28;20037;-72
2021/01/10 01:50:57;;;;;;;15.87;6.80;;;;;;;-0.16;100.00;101683.22;5030847;28;20045;-72
2021/01/10 01:53:24;;;;;;;14.67;6.83;;;;;;;-0.18;100.00;101675.34;5046873;28;20798;-72
2021/01/10 01:55:56;;;;;;;12.13;7.07;;;;;;;-0.18;100.00;101672.75;5063396;28;20541;-72
2021/01/10 01:58:23;;;;;;;12.70;5.83;;;;;;;-0.20;100.00;101676.13;5065260;28;20040;-72
2021/01/10 02:00:50;;;;;;;11.90;5.90;;;;;;;-0.20;100.00;101677.00;5046716;28;20108;-72
2021/01/10 02:03:32;;;;;;;13.70;7.03;;;;;;;-0.21;100.00;101675.22;5047007;28;20101;-73
2021/01/10 02:06:02;;;;;;;11.83;7.07;;;;;;;-0.21;100.00;101677.81;5048088;28;20132;-72
2021/01/10 02:08:31;;;;;;;11.97;6.90;;;;;;;-0.21;100.00;101680.44;5047291;28;20040;-72
2021/01/10 02:11:01;;;;;;;14.63;6.93;;;;;;;-0.21;100.00;101683.03;5043753;28;20097;-72
2021/01/10 02:13:31;;;;;;;16.73;7.27;;;;;;;-0.22;100.00;101680.38;5043144;28;20036;-72
2021/01/10 02:15:58;;;;;;;13.83;6.23;;;;;;;-0.21;100.00;101689.94;5044580;28;20127;-74
2021/01/10 02:18:25;;;;;;;11.83;6.37;;;;;;;-0.22;100.00;101686.44;5046979;28;20628;-73
2021/01/10 02:20:52;;;;;;;12.00;6.50;;;;;;;-0.21;100.00;101689.94;5061352;28;20375;-73
2021/01/10 02:23:22;;;;;;;14.20;6.20;;;;;;;-0.21;100.00;101687.34;5030302;28;20036;-74
2021/01/10 02:25:49;;;;;;;11.33;5.77;;;;;;;-0.22;100.00;101689.03;5041376;28;20064;-72
2021/01/10 02:28:20;;;;;;;21.17;7.77;;;;;;;-0.24;100.00;101685.50;5057976;28;20039;-72
2021/01/10 02:30:46;;;;;;;12.87;6.10;;;;;;;-0.25;100.00;101686.34;5046202;28;20044;-74
2021/01/10 02:33:37;;;;;;;11.53;5.63;;;;;;;-0.26;100.00;101681.94;5049263;28;20131;-74
2021/01/10 02:36:10;;;;;;;11.70;6.07;;;;;;;-0.26;100.00;101676.75;5059030;28;20056;-72
2021/01/10 02:39:10;;;;;;;11.73;5.43;;;;;;;-0.28;100.00;101668.91;5024982;28;20051;-73
2021/01/10 02:41:42;;;;;;;10.40;5.73;;;;;;;-0.29;100.00;101676.63;5005659;28;20063;-72
2021/01/10 02:44:17;;;;;;;9.90;5.07;;;;;;;-0.28;100.00;101678.41;5026824;28;20045;-75
2021/01/10 02:46:47;;;;;;;12.93;6.50;;;;;;;-0.28;100.00;101678.41;5066088;28;20082;-73
2021/01/10 02:49:14;;;;;;;11.20;5.40;;;;;;;-0.29;100.00;101677.53;5043353;28;20033;-73
2021/01/10 02:51:40;;;;;;;10.63;5.93;;;;;;;-0.30;100.00;101686.13;5048549;28;20037;-73
2021/01/10 02:54:06;;;;;;;10.53;5.57;;;;;;;-0.29;100.00;101687.91;5061855;28;20032;-73
2021/01/10 02:56:34;;;;;;;10.50;5.20;;;;;;;-0.28;100.00;101678.41;5064255;28;20063;-71
2021/01/10 02:59:02;;;;;;;10.60;6.13;;;;;;;-0.28;100.00;101686.19;5046785;28;20036;-73
2021/01/10 03:01:28;;;;;;;11.90;5.20;;;;;;;-0.28;100.00;101687.06;5045624;28;20052;-73
2021/01/10 03:03:55;;;;;;;10.53;5.67;;;;;;;-0.28;100.00;101683.59;5043114;28;20051;-73
2021/01/10 03:06:22;;;;;;;9.70;4.60;;;;;;;-0.28;100.00;101692.28;5021863;28;20575;-73
2021/01/10 03:08:48;;;;;;;9.83;4.97;;;;;;;-0.27;100.00;101693.16;5026916;28;20052;-73
2021/01/10 03:11:16;;;;;;;13.13;5.80;;;;;;;-0.25;100.00;101690.63;5062811;28;20055;-73
2021/01/10 03:13:42;;;;;;;10.47;5.60;;;;;;;-0.26;100.00;101700.13;5063917;28;20049;-73
2021/01/10 03:16:09;;;;;;;10.37;5.33;;;;;;;-0.26;100.00;101692.31;5045009;28;20048;-73
2021/01/10 03:18:35;;;;;;;10.40;5.17;;;;;;;-0.25;100.00;101703.59;5063165;28;20490;-73
2021/01/10 03:21:02;;;;;;;10.90;5.50;;;;;;;-0.26;100.00;101694.91;5063127;28;20045;-73
2021/01/10 03:23:28;;;;;;;15.00;6.03;;;;;;;-0.26;100.00;101702.72;5042008;28;20036;-73
2021/01/10 03:25:54;;;;;;;8.67;5.23;;;;;;;-0.27;100.00;101693.16;5046075;28;20424;-73
2021/01/10 03:28:20;;;;;;;13.17;6.07;;;;;;;-0.27;100.00;101695.75;5061172;28;20502;-70
2021/01/10 03:30:46;;;;;;;13.77;5.67;;;;;;;-0.28;100.00;101700.06;5045525;28;20044;-73
2021/01/10 03:33:13;;;;;;;12.27;5.60;;;;;;;-0.30;100.00;101696.53;5062414;28;20040;-73
2021/01/10 03:35:39;;;;;;;15.23;6.90;;;;;;;-0.24;100.00;101695.91;5023688;28;20510;-73
2021/01/10 03:38:06;;;;;;;11.73;6.87;;;;;;;-0.29;100.00;101703.50;5048809;28;20042;-73
2021/01/10 03:40:32;;;;;;;13.53;7.00;;;;;;;-0.30;100.00;101700.84;5056906;28;20032;-73
2021/01/10 03:42:59;;;;;;;13.23;6.93;;;;;;;-0.32;100.00;101700.78;5027857;28;20037;-73
2021/01/10 03:45:25;;;;;;;14.43;6.73;;;;;;;-0.30;100.00;101696.53;5010278;28;20102;-73
2021/01/10 03:47:51;;;;;;;15.70;6.67;;;;;;;-0.30;100.00;101698.25;5047509;28;20820;-73
2021/01/10 03:50:18;;;;;;;14.97;7.17;;;;;;;-0.31;100.00;101688.69;5050558;28;20138;-76
2021/01/10 03:52:44;;;;;;;12.23;6.50;;;;;;;-0.30;100.00;101682.66;5066657;28;20052;-76
2021/01/10 03:55:10;;;;;;;13.27;6.50;;;;;;;-0.31;100.00;101678.28;5038100;28;20048;-74
2021/01/10 03:57:38;;;;;;;12.73;6.67;;;;;;;-0.31;100.00;101683.50;5032767;28;20045;-72
2021/01/10 04:00:06;;;;;;;14.67;6.37;;;;;;;-0.32;100.00;101677.41;5046824;28;20036;-76
2021/01/10 04:02:32;;;;;;;12.57;6.70;;;;;;;-0.33;100.00;101665.25;5051181;28;20040;-75
2021/01/10 04:04:59;;;;;;;11.37;5.37;;;;;;;-0.34;100.00;101665.16;5068009;28;20127;-75
2021/01/10 04:07:25;;;;;;;12.10;5.77;;;;;;;-0.34;100.00;101662.56;5042558;28;20382;-77
2021/01/10 04:09:51;;;;;;;13.47;7.20;;;;;;;-0.33;100.00;101667.84;5065182;28;20033;-77
2021/01/10 04:12:17;;;;;;;12.67;6.83;;;;;;;-0.33;100.00;101666.97;5057930;28;20087;-74
2021/01/10 04:14:44;;;;;;;14.20;6.10;;;;;;;-0.34;100.00;101657.38;5044678;28;20103;-74
2021/01/10 04:17:10;;;;;;;14.40;6.70;;;;;;;-0.36;100.00;101657.31;5046813;28;20041;-70
2021/01/10 04:19:37;;;;;;;16.03;6.83;;;;;;;-0.37;100.00;101660.75;5068599;28;20390;-72
2021/01/10 04:22:03;;;;;;;12.60;6.87;;;;;;;-0.39;100.00;101659.81;5065303;28;20041;-73
2021/01/10 04:24:30;;;;;;;16.80;6.40;;;;;;;-0.37;100.00;101660.75;5050823;28;20105;-75
2021/01/10 04:26:56;;;;;;;10.67;5.53;;;;;;;-0.36;100.00;101649.53;5033739;28;20550;-73
2021/01/10 04:29:22;;;;;;;11.43;5.90;;;;;;;-0.34;100.00;101655.69;5040180;28;20036;-75
2021/01/10 04:31:50;;;;;;;13.17;5.70;;;;;;;-0.33;100.00;101648.78;5051206;28;20115;-71
2021/01/10 04:34:17;;;;;;;13.13;6.77;;;;;;;-0.34;100.00;101653.09;5049327;28;20060;-73
2021/01/10 04:36:43;;;;;;;13.47;6.33;;;;;;;-0.34;100.00;101653.09;5049962;28;20055;-73
2021/01/10 04:39:13;;;;;;;13.40;6.40;;;;;;;-0.33;100.00;101649.69;5055888;28;20141;-77
2021/01/10 04:41:40;;;;;;;13.60;7.03;;;;;;;-0.30;100.00;101659.28;5057968;28;20116;-76
2021/01/10 04:44:06;;;;;;;13.60;8.13;;;;;;;-0.30;100.00;101651.50;5049790;28;20036;-73
2021/01/10 04:46:33;;;;;;;15.67;7.70;;;;;;;-0.29;100.00;101650.66;5070593;28;20036;-73
2021/01/10 04:48:59;;;;;;;12.30;6.80;;;;;;;-0.29;100.00;101658.47;5033154;28;20049;-75
2021/01/10 04:51:26;;;;;;;15.53;7.67;;;;;;;-0.26;100.00;101657.69;5065219;28;20037;-74
2021/01/10 04:53:55;;;;;;;17.87;7.90;;;;;;;-0.26;100.00;101665.47;5071170;28;20045;-72
2021/01/10 04:56:27;;;;;;;13.70;6.83;;;;;;;-0.25;100.00;101667.25;5048300;28;20045;-74
2021/01/10 04:58:55;;;;;;;17.20;9.07;;;;;;;-0.24;100.00;101675.13;5067497;28;20040;-76
2021/01/10 05:01:25;;;;;;;15.47;8.33;;;;;;;-0.23;100.00;101668.22;5049355;28;20430;-76
2021/01/10 05:03:54;;;;;;;15.73;8.10;;;;;;;-0.22;100.00;101665.66;5067075;28;20674;-74
2021/01/10 05:06:22;;;;;;;17.93;9.73;;;;;;;-0.21;100.00;101662.25;5026228;28;20060;-75
2021/01/10 05:08:48;;;;;;;17.27;8.27;;;;;;;-0.21;100.00;101662.25;5033297;28;20094;-72
2021/01/10 05:11:16;;;;;;;15.03;8.33;;;;;;;-0.23;100.00;101666.50;5067235;28;20520;-75
2021/01/10 05:13:42;;;;;;;16.27;7.93;;;;;;;-0.25;100.00;101662.03;5049496;28;20090;-73
2021/01/10 05:16:08;;;;;;;14.57;6.57;;;;;;;-0.25;100.00;101662.97;5053801;28;20036;-73
2021/01/10 05:18:48;;;;;;;10.97;6.60;;;;;;;-0.29;100.00;101661.94;5048913;28;20044;-73
2021/01/10 05:21:15;;;;;;;12.17;6.90;;;;;;;-0.30;100.00;101661.88;5049846;28;20037;-74
2021/01/10 05:23:41;;;;;;;12.70;6.17;;;;;;;-0.30;100.00;101664.47;5065934;28;20036;-74
2021/01/10 05:26:08;;;;;;;14.07;7.33;;;;;;;-0.31;100.00;101665.31;5067036;28;20040;-76
2021/01/10 05:28:35;;;;;;;12.37;6.70;;;;;;;-0.32;100.00;101666.13;5049427;28;20490;-73
2021/01/10 05:31:05;;;;;;;11.60;6.30;;;;;;;-0.35;100.00;101660.81;5061521;28;20036;-72
2021/01/10 05:33:46;;;;;;;11.73;6.33;;;;;;;-0.38;100.00;101656.38;5041147;28;20055;-75
2021/01/10 05:36:24;;;;;;;12.43;6.90;;;;;;;-0.42;100.00;101663.97;5050119;28;20044;-73
2021/01/10 05:38:50;;;;;;;9.77;5.30;;;;;;;-0.45;100.00;101650.88;5056983;28;20447;-74
2021/01/10 05:41:16;;;;;;;10.13;5.63;;;;;;;-0.47;100.00;101658.63;5071004;28;20163;-74
2021/01/10 05:44:02;;;;;;;9.27;4.97;;;;;;;-0.47;100.00;101660.34;5070591;28;20448;-72
2021/01/10 05:46:31;;;;;;;8.37;4.67;;;;;;;-0.48;100.00;101663.75;5051115;28;20040;-75
2021/01/10 05:48:59;;;;;;;10.17;5.10;;;;;;;-0.49;100.00;101662.00;5071616;28;20040;-72
2021/01/10 05:51:29;;;;;;;10.03;5.53;;;;;;;-0.51;100.00;101661.00;5049027;28;20086;-73
2021/01/10 05:53:56;;;;;;;12.00;6.10;;;;;;;-0.53;100.00;101660.97;5032743;28;20051;-72
2021/01/10 05:56:23;;;;;;;9.33;5.23;;;;;;;-0.53;100.00;101663.56;5048449;28;20041;-73
2021/01/10 05:58:54;;;;;;;9.07;4.80;;;;;;;-0.54;100.00;101664.38;5051269;28;20040;-73
2021/01/10 06:01:21;;;;;;;7.23;4.60;;;;;;;-0.55;100.00;101670.41;5065177;28;20525;-73
2021/01/10 06:03:52;;;;;;;9.03;5.00;;;;;;;-0.55;100.00;101673.00;5048474;28;20037;-73
2021/01/10 06:06:19;;;;;;;8.40;4.63;;;;;;;-0.57;100.00;101670.34;5052953;28;20056;-73
2021/01/10 06:08:46;;;;;;;10.57;5.67;;;;;;;-0.57;100.00;101680.72;5033059;28;20053;-73
2021/01/10 06:11:26;;;;;;;9.33;5.37;;;;;;;-0.62;100.00;101674.44;5048215;28;20099;-73
2021/01/10 06:13:56;;;;;;;12.57;6.30;;;;;;;-0.66;100.00;101676.88;5042285;28;20040;-73
2021/01/10 06:16:34;;;;;;;9.43;5.10;;;;;;;-0.71;100.00;101687.03;5055756;28;20044;-73
2021/01/10 06:19:06;;;;;;;10.43;5.07;;;;;;;-0.73;100.00;101687.81;5068400;28;20044;-73
2021/01/10 06:21:33;;;;;;;8.97;5.27;;;;;;;-0.75;100.00;101681.69;5048847;28;20102;-73
2021/01/10 06:24:02;;;;;;;8.10;4.70;;;;;;;-0.77;100.00;101686.78;5050655;28;20457;-73
2021/01/10 06:26:30;;;;;;;9.43;5.73;;;;;;;-0.78;100.00;101685.00;5052242;28;20090;-73
2021/01/10 06:29:01;;;;;;;9.13;5.30;;;;;;;-0.78;100.00;101689.31;5051141;28;20704;-73
2021/01/10 06:31:38;;;;;;;12.43;5.80;;;;;;;-0.79;100.00;101687.56;5067043;28;20055;-73
2021/01/10 06:34:06;;;;;;;8.33;5.43;;;;;;;-0.80;100.00;101691.84;5066979;28;20071;-73
2021/01/10 06:36:38;;;;;;;9.33;5.13;;;;;;;-0.80;100.00;101693.56;5055597;28;20382;-73
2021/01/10 06:39:05;;;;;;;8.73;5.50;;;;;;;-0.81;100.00;101689.19;5029526;28;20044;-73
2021/01/10 06:41:34;;;;;;;10.13;5.23;;;;;;;-0.80;100.00;101696.16;5065101;28;20082;-73
2021/01/10 06:44:05;;;;;;;9.73;5.37;;;;;;;-0.81;100.00;101697.88;5077739;28;20047;-73
2021/01/10 06:46:32;;;;;;;8.73;4.77;;;;;;;-0.81;100.00;101703.06;5049713;28;20085;-73
2021/01/10 06:49:03;;;;;;;9.93;5.63;;;;;;;-0.79;100.00;101695.34;5065534;28;20040;-73
2021/01/10 06:51:31;;;;;;;9.63;5.50;;;;;;;-0.81;100.00;101699.59;5066840;28;20127;-73
2021/01/10 06:54:03;;;;;;;9.37;5.43;;;;;;;-0.83;100.00;101702.13;5044789;28;20102;-72
2021/01/10 06:56:30;;;;;;;9.43;4.80;;;;;;;-0.88;100.00;101688.94;5049366;28;21927;-74
2021/01/10 06:59:10;;;;;;;10.10;5.00;;;;;;;-0.91;100.00;101693.13;5048034;28;20041;-73
2021/01/10 07:01:48;;;;;;;9.67;5.77;;;;;;;-0.95;100.00;101705.06;5047753;28;20039;-73
2021/01/10 07:04:23;;;;;;;9.33;5.03;;;;;;;-0.99;100.00;101694.50;5064878;28;20053;-73
2021/01/10 07:06:53;;;;;;;9.40;5.77;;;;;;;-1.04;100.00;101694.28;5056198;28;20129;-73
2021/01/10 07:09:20;;;;;;;8.17;5.00;;;;;;;-1.09;100.00;101694.91;5029369;28;21016;-73
2021/01/10 07:11:47;;;;;;;8.57;4.60;;;;;;;-1.18;100.00;101690.22;5051163;28;20063;-73
2021/01/10 07:14:13;;;;;;;8.60;4.73;;;;;;;-1.26;100.00;101697.69;5072584;28;20075;-73
2021/01/10 07:16:40;;;;;;;11.80;5.23;;;;;;;-1.28;100.00;101696.69;5067587;28;20651;-73
2021/01/10 07:19:07;;;;;;;10.53;5.63;;;;;;;-1.26;100.00;101697.69;5047848;28;20132;-73
2021/01/10 07:21:35;;;;;;;11.80;6.40;;;;;;;-1.22;100.00;101712.53;5046358;28;20056;-73
2021/01/10 07:24:13;;;;;;;12.07;6.53;;;;;;;-1.19;100.00;101701.41;5046169;28;20112;-73
2021/01/10 07:27:08;;;;;;;11.63;6.97;;;;;;;-1.19;100.00;101715.25;5059598;28;20068;-73
2021/01/10 07:29:39;;;;;;;11.63;7.05;;;;;;;-1.16;100.00;101723.19;5053509;28;20557;-73
2021/01/10 07:32:13;;;;;;;16.13;9.07;;;;;;;-1.11;100.00;101731.16;5051184;28;20041;-73
2021/01/10 07:34:45;;;;;;;20.60;11.50;;;;;;;-1.09;100.00;101726.94;5050621;28;20040;-73
2021/01/10 07:37:14;;;;;;;24.03;11.40;;;;;;;-1.06;100.00;101723.59;5066729;28;20440;-73
2021/01/10 07:39:49;;;;;;;27.67;13.03;;;;;;;-1.00;100.00;101726.44;5049118;28;20525;-73
2021/01/10 07:42:16;;;;;;;29.30;14.50;;;;;;;-1.01;100.00;101728.16;5044182;28;20052;-73
2021/01/10 07:45:02;;;;;;;27.97;12.77;;;;;;;-1.05;100.00;101733.13;5055907;28;20045;-73
2021/01/10 07:47:31;;;;;;;28.00;12.37;;;;;;;-1.04;100.00;101742.69;5049181;28;20489;-73
2021/01/10 07:50:00;;;;;;;29.17;13.17;;;;;;;-1.03;100.00;101741.84;5068673;28;20043;-73
2021/01/10 07:52:42;;;;;;;28.40;13.93;;;;;;;-1.11;100.00;101736.34;5071894;28;20113;-73
2021/01/10 07:55:17;;;;;;;31.40;14.33;;;;;;;-1.11;100.00;101745.81;5069332;28;20044;-73
2021/01/10 07:58:14;;;;;;;32.67;13.40;;;;;;;-1.14;100.00;101742.28;5061208;28;20081;-72
2021/01/10 08:00:46;;;;;;;25.20;12.73;;;;;;;-1.13;100.00;101741.47;5066875;28;20631;-73
2021/01/10 08:03:26;;;;;;;29.03;13.57;;;;;;;-1.13;100.00;101732.78;5047379;28;20109;-73
2021/01/10 08:05:56;;;;;;;25.00;12.27;;;;;;;-1.10;100.00;101743.28;5052132;28;20388;-73
2021/01/10 08:08:37;;;;;;;24.73;12.60;;;;;;;-1.10;100.00;101734.63;5068021;28;20041;-73
2021/01/10 08:11:04;;;;;;;29.93;14.43;;;;;;;-1.08;100.00;101749.47;5055872;28;20037;-73
2021/01/10 08:13:35;;;;;;;29.33;13.43;;;;;;;-1.04;100.00;101746.16;5042547;28;20174;-73
2021/01/10 08:16:08;;;;;;;24.63;12.50;;;;;;;-0.99;100.00;101748.97;5054381;28;20036;-73
2021/01/10 08:18:45;;;;;;;25.05;11.82;;;;;;;-1.01;100.00;101758.38;5051875;28;20068;-71
2021/01/10 08:21:12;;;;;;;27.13;12.20;;;;;;;-1.02;100.00;101756.59;5027904;28;20029;-71
2021/01/10 08:23:39;;;;;;;25.50;12.00;;;;;;;-1.00;100.00;101754.97;5041483;28;20063;-70
2021/01/10 08:26:13;;;;;;;27.23;11.50;;;;;;;-0.99;100.00;101760.22;5042284;28;20057;-71
2021/01/10 08:28:45;;;;;;;24.90;12.65;;;;;;;-0.99;100.00;101757.63;5031472;28;20403;-70
2021/01/10 08:31:13;;;;;;;26.43;11.63;;;;;;;-0.99;100.00;101765.41;5028500;28;20090;-71
2021/01/10 08:33:40;;;;;;;25.43;12.37;;;;;;;-1.01;100.00;101763.56;5041219;28;20119;-71
2021/01/10 08:36:21;;;;;;;21.17;11.20;;;;;;;-1.11;100.00;101762.28;5031153;28;20045;-71
2021/01/10 08:38:53;;;;;;;21.73;12.67;;;;;;;-1.10;100.00;101765.75;5042800;28;20040;-70
2021/01/10 08:41:23;;;;;;;23.73;11.80;;;;;;;-1.05;100.00;101762.53;5049462;28;20432;-71
2021/01/10 08:44:01;;;;;;;26.67;13.17;;;;;;;-1.03;100.00;101762.59;5032073;28;20048;-71
2021/01/10 08:46:30;;;;;;;27.20;12.83;;;;;;;-1.11;100.00;101754.50;5061155;28;20032;-70
2021/01/10 08:48:57;;;;;;;24.40;12.80;;;;;;;-1.06;100.00;101754.69;5029723;28;20048;-71
2021/01/10 08:51:36;;;;;;;28.47;12.87;;;;;;;-1.04;100.00;101751.34;5025875;28;20628;-71
2021/01/10 08:54:07;;;;;;;23.23;11.63;;;;;;;-1.07;100.00;101763.31;5042246;28;20115;-71
2021/01/10 08:56:33;;;;;;;23.23;10.70;;;;;;;-1.05;100.00;101762.53;5065419;28;20044;-71
2021/01/10 08:58:59;;;;;;;23.20;11.00;;;;;;;-1.10;100.00;101755.38;5045323;28;20044;-71
2021/01/10 09:01:26;;;;;;;23.47;11.33;;;;;;;-1.06;100.00;101762.47;5027259;28;20037;-70
2021/01/10 09:04:05;;;;;;;23.97;12.23;;;;;;;-1.13;100.00;101758.72;5029050;28;20646;-70
2021/01/10 09:06:34;;;;;;;23.03;11.10;;;;;;;-1.13;100.00;101759.59;5061406;28;20555;-71
2021/01/10 09:09:05;;;;;;;16.70;8.50;;;;;;;-1.16;100.00;101764.69;5055739;28;20045;-70
2021/01/10 09:11:34;;;;;;;18.27;9.47;;;;;;;-1.11;100.00;101761.38;5041843;28;20690;-70
2021/01/10 09:14:02;;;;;;;15.60;7.97;;;;;;;-1.14;100.00;101764.72;5045714;28;20028;-71
2021/01/10 09:16:30;;;;;;;17.10;9.30;;;;;;;-1.17;100.00;101770.69;5027962;28;20036;-71
2021/01/10 09:18:58;;;;;;;18.70;9.50;;;;;;;-1.22;100.00;101764.38;5046818;28;20048;-70
2021/01/10 09:21:27;;;;;;;21.83;11.13;;;;;;;-1.14;100.00;101768.22;5043142;28;20036;-70
2021/01/10 09:23:55;;;;;;;18.77;9.50;;;;;;;-1.13;100.00;101763.91;5040190;28;20545;-70
2021/01/10 09:26:32;;;;;;;18.87;10.57;;;;;;;-1.22;100.00;101755.72;5047758;28;20041;-71
2021/01/10 09:29:00;;;;;;;19.60;9.23;;;;;;;-1.21;100.00;101760.09;5024639;28;20045;-70
2021/01/10 09:31:40;;;;;;;16.60;9.37;;;;;;;-1.24;100.00;101759.97;5044297;28;20064;-71
2021/01/10 09:34:07;;;;;;;18.50;8.60;;;;;;;-1.28;100.00;101763.22;5044913;28;20048;-70
2021/01/10 09:36:33;;;;;;;21.00;9.83;;;;;;;-1.22;100.00;101758.31;5045128;28;20055;-70
2021/01/10 09:39:00;;;;;;;19.53;9.93;;;;;;;-1.21;100.00;101760.09;5034916;28;20624;-70
2021/01/10 09:41:26;;;;;;;22.73;9.87;;;;;;;-1.18;100.00;101763.72;5044111;28;20029;-70
2021/01/10 09:43:54;;;;;;;16.23;8.77;;;;;;;-1.11;100.00;101774.34;5044447;28;20052;-71
2021/01/10 09:46:28;;;;;;;19.90;9.77;;;;;;;-1.06;100.00;101770.25;5044354;28;20091;-71
2021/01/10 09:49:00;;;;;;;19.97;10.00;;;;;;;-1.10;100.00;101776.13;5048330;28;20094;-70
2021/01/10 09:51:42;;;;;;;21.50;11.40;;;;;;;-1.28;100.00;101781.38;5049711;28;20035;-70
2021/01/10 09:54:09;;;;;;;21.73;10.60;;;;;;;-1.35;100.00;101775.00;5047804;28;20090;-70
2021/01/10 09:56:35;;;;;;;19.50;9.53;;;;;;;-1.37;100.00;101784.44;5059659;28;20046;-70
2021/01/10 09:59:02;;;;;;;20.00;10.93;;;;;;;-1.38;100.00;101777.47;5055977;28;20064;-70
2021/01/10 10:01:37;;;;;;;21.93;10.20;;;;;;;-1.36;100.00;101781.03;5027196;28;20603;-70
2021/01/10 10:04:04;;;;;;;20.60;11.23;;;;;;;-1.34;100.00;101771.63;5046679;28;20044;-70
2021/01/10 10:06:59;;;;;;;23.70;11.07;;;;;;;-1.27;100.00;101777.94;5060494;28;20048;-70
2021/01/10 10:09:46;;;;;;;20.90;10.20;;;;;;;-1.25;100.00;101774.63;5014502;28;20044;-70
2021/01/10 10:12:13;;;;;;;21.90;11.03;;;;;;;-1.24;100.00;101770.34;5026472;28;20668;-70
2021/01/10 10:14:51;;;;;;;24.83;10.33;;;;;;;-1.16;100.00;101776.75;5062418;28;20536;-70
2021/01/10 10:17:22;;;;;;;20.97;11.70;;;;;;;-1.16;100.00;101762.09;5054733;28;20037;-70
2021/01/10 10:19:48;;;;;;;19.97;9.90;;;;;;;-1.23;100.00;101762.63;5042403;28;20052;-70
2021/01/10 10:22:19;;;;;;;23.30;11.07;;;;;;;-1.25;100.00;101764.25;5048907;28;20705;-70
2021/01/10 10:24:45;;;;;;;20.33;9.53;;;;;;;-1.21;100.00;101754.91;5048419;28;20048;-70
2021/01/10 10:27:11;;;;;;;23.77;11.57;;;;;;;-1.21;100.00;101758.38;5064676;28;20456;-71
2021/01/10 10:29:37;;;;;;;18.73;9.90;;;;;;;-1.11;100.00;101758.78;5043921;28;20405;-70
2021/01/10 10:32:03;;;;;;;20.97;10.80;;;;;;;-1.14;100.00;101747.47;5067048;28;20068;-70
2021/01/10 10:34:30;;;;;;;21.47;10.73;;;;;;;-1.23;100.00;101747.06;5048720;28;20071;-70
2021/01/10 10:36:59;;;;;;;23.43;11.47;;;;;;;-1.26;100.00;101741.75;5066248;28;20040;-70
2021/01/10 10:39:26;;;;;;;20.50;9.03;;;;;;;-1.20;100.00;101752.38;5030219;28;20036;-70
2021/01/10 10:41:53;;;;;;;24.03;10.20;;;;;;;-1.18;100.00;101734.28;5028747;28;20048;-71
2021/01/10 10:44:19;;;;;;;20.47;10.77;;;;;;;-1.23;100.00;101741.88;5064141;28;20140;-70
2021/01/10 10:46:45;;;;;;;18.67;9.97;;;;;;;-1.21;100.00;101742.81;5047465;28;20051;-70
2021/01/10 10:49:11;;;;;;;20.23;10.10;;;;;;;-1.24;100.00;101740.09;5048427;28;20131;-70
2021/01/10 10:51:38;;;;;;;19.77;10.60;;;;;;;-1.20;100.00;101730.75;5046234;28;20036;-70
2021/01/10 10:54:04;;;;;;;19.40;9.63;;;;;;;-1.15;100.00;101735.31;5048110;28;20048;-70
2021/01/10 10:56:41;;;;;;;21.03;11.13;;;;;;;-1.08;100.00;101739.09;5065769;28;20040;-70
2021/01/10 10:59:07;;;;;;;21.20;10.47;;;;;;;-0.98;100.00;101737.78;5048491;28;20051;-70
2021/01/10 11:01:45;;;;;;;22.50;12.70;;;;;;;-0.96;100.00;101741.31;5048205;28;20044;-70
2021/01/10 11:04:11;;;;;;;24.00;12.67;;;;;;;-0.90;100.00;101755.44;5048844;28;20127;-70
2021/01/10 11:06:38;;;;;;;19.27;10.43;;;;;;;-0.86;100.00;101738.28;5048667;28;20036;-70
2021/01/10 11:09:06;;;;;;;22.60;10.33;;;;;;;-0.75;100.00;101731.00;5048081;28;20040;-70
2021/01/10 11:11:45;;;;;;;18.83;10.40;;;;;;;-0.63;100.00;101737.56;5040157;28;20051;-70
2021/01/10 11:14:16;;;;;;;18.13;9.23;;;;;;;-0.28;100.00;101736.41;5044323;28;20103;-70
2021/01/10 11:16:51;;;;;;;14.43;8.40;;;;;;;0.06;100.00;101723.88;5039426;28;20040;-74
2021/01/10 11:19:17;;;;;;;15.70;8.40;;;;;;;0.38;100.00;101722.53;5039598;28;20095;-72